Flight Track Log - Related Links

Times and Time Zones

All times are in EDT time to prevent confusion due to time zone crossing. See the KAL243 flight status page for this flight to view local times or setup timezone preferences in your user account.


Time Position Orientation Groundspeed Altitude Reporting Facility
EDT Latitude Longitude Course Direction KTS MPH feet Rate Location/Type
Sun 02:53:22 AM 33.6370 -84.3750 84° East 171 197 3,100  Level FlightAware ADS-B
Sun 02:53:57 AM 33.6430 -84.3350 80° East 194 223 4,200 1,371 Climbing FlightAware ADS-B
Sun 02:55:07 AM 33.6880 -84.2640 53° Northeast 311 358 5,500 1,886 Climbing FlightAware ADS-B
Sun 02:55:42 AM 33.7340 -84.2870 337° Northwest 291 335 7,500 3,720 Climbing FlightAware ADS-B
Sun 02:55:57 AM 33.7440 -84.3070 301° West 273 314 8,600 4,200 Climbing FlightAware ADS-B
Sun 02:56:12 AM 33.7480 -84.3280 283° West 258 297 9,600 2,800 Climbing FlightAware ADS-B
Sun 02:56:42 AM 33.7470 -84.3710 268° West 276 318 10,700 1,765 Climbing FlightAware ADS-B
Sun 02:57:37 AM 33.7450 -84.4690 269° West 336 387 12,100 2,133 Climbing FlightAware ADS-B
Sun 02:58:12 AM 33.7430 -84.5360 268° West 349 402 13,900 3,318 Climbing FlightAware ADS-B
Sun 02:59:02 AM 33.7410 -84.6340 269° West 365 420 16,800 3,459 Climbing FlightAware ADS-B
Sun 02:59:37 AM 33.7400 -84.7060 269° West 372 428 18,800 3,600 Climbing FlightAware ADS-B
Sun 02:59:47 AM 33.7390 -84.7346 268° West 378 435 19,500 2,267 Climbing FlightAware ADS-B
Sun 03:00:22 AM 33.7380 -84.7890 269° West 390 449 20,500 2,400 Climbing FlightAware ADS-B
Sun 03:01:02 AM 33.7360 -84.8860 269° West 407 468 22,500 2,925 Climbing FlightAware ADS-B
Sun 03:01:42 AM 33.7340 -84.9790 269° West 415 478 24,400 2,533 Climbing FlightAware ADS-B
Sun 03:02:32 AM 33.7310 -85.0920 268° West 426 490 26,300 2,250 Climbing FlightAware ADS-B
Sun 03:03:02 AM 33.7300 -85.1650 269° West 435 501 27,400 2,423 Climbing FlightAware ADS-B
Sun 03:03:24 AM 33.7279 -85.2327 268° West 441 507 28,400 2,444 Climbing FlightAware ADS-B
Sun 03:03:56 AM 33.7259 -85.3123 268° West 445 512 29,600 2,118 Climbing FlightAware ADS-B
Sun 03:04:32 AM 33.7237 -85.4008 268° West 449 517 30,800 1,658 Climbing FlightAware ADS-B
Sun 03:05:12 AM 33.7220 -85.4810 269° West 458 527 31,700 2,192 Climbing FlightAware ADS-B
Sun 03:05:24 AM 33.7202 -85.5326 268° West 454 522 32,700 3,000 Climbing FlightAware ADS-B
Sun 03:05:54 AM 33.7181 -85.6086 268° West 450 518 33,800 2,320 Climbing FlightAware ADS-B
Sun 03:06:39 AM 33.7150 -85.7175 268° West 445 512 35,600 1,737 Climbing FlightAware ADS-B
Sun 03:07:10 AM 33.7128 -85.7926 268° West 431 496 36,000 333 Climbing FlightAware ADS-B
Sun 03:07:51 AM 33.7099 -85.8918 268° West 430 495 36,000  Level FlightAware ADS-B
Sun 03:08:22 AM 33.7078 -85.9647 268° West 430 495 36,000  Level FlightAware ADS-B
Sun 03:09:18 AM 33.7038 -86.0957 268° West 425 489 36,000  Level FlightAware ADS-B
Sun 03:09:49 AM 33.7014 -86.1691 268° West 422 486 36,000  Level FlightAware ADS-B
Sun 03:10:41 AM 33.6974 -86.2902 268° West 419 482 36,000  Level FlightAware ADS-B
Sun 03:11:12 AM 33.6950 -86.3630 268° West 419 482 36,000  Level FlightAware ADS-B
Sun 03:12:02 AM 33.6910 -86.4740 268° West 420 483 36,000  Level FlightAware ADS-B
Sun 03:12:47 AM 33.6880 -86.5720 268° West 418 481 36,000  Level FlightAware ADS-B
Sun 03:13:12 AM 33.6769 -86.6401 259° West 423 487 36,000  Level FlightAware ADS-B
Sun 03:13:25 AM 33.6665 -86.6682 246° West 426 490 36,000  Level FlightAware ADS-B
Sun 03:13:37 AM 33.6554 -86.6909 240° Southwest 429 494 36,000  Level FlightAware ADS-B
Sun 03:14:38 AM 33.5914 -86.8118 238° Southwest 424 488 36,000  Level FlightAware ADS-B
Sun 03:15:27 AM 33.5420 -86.9040 237° Southwest 421 484 36,000  Level FlightAware ADS-B
Sun 03:16:27 AM 33.4940 -87.0120 242° Southwest 406 467 36,000  Level FlightAware ADS-B
Sun 03:17:07 AM 33.4690 -87.0820 247° West 406 467 36,000  Level FlightAware ADS-B
Sun 03:17:47 AM 33.4430 -87.1520 246° West 406 467 36,000  Level FlightAware ADS-B
Sun 03:18:37 AM 33.4100 -87.2400 246° West 406 467 36,000  Level FlightAware ADS-B
Sun 03:19:17 AM 33.3840 -87.3090 246° West 406 467 36,000  Level FlightAware ADS-B
Sun 03:19:57 AM 33.3580 -87.3790 246° West 406 467 36,000  Level FlightAware ADS-B
Sun 03:20:37 AM 33.3320 -87.4490 246° West 406 467 36,000  Level FlightAware ADS-B
Sun 03:21:27 AM 33.3000 -87.5360 246° West 406 467 36,000  Level FlightAware ADS-B
Sun 03:22:07 AM 33.2740 -87.6060 246° West 406 467 36,000  Level FlightAware ADS-B
Sun 03:22:47 AM 33.2480 -87.6760 246° West 406 467 36,000  Level FlightAware ADS-B
Sun 03:23:27 AM 33.2220 -87.7460 246° West 406 467 36,000  Level FlightAware ADS-B
Sun 03:24:07 AM 33.1960 -87.8150 246° West 406 467 36,000  Level FlightAware ADS-B
Sun 03:24:57 AM 33.1630 -87.9030 246° West 406 467 36,000  Level FlightAware ADS-B
Sun 03:25:37 AM 33.1370 -87.9720 246° West 406 467 36,000  Level FlightAware ADS-B
Sun 03:26:21 AM 33.4642 -88.2681 246° West 382 440 36,000  Level Memphis Center
Sun 03:27:21 AM 33.4622 -88.3950 269° West 387 445 36,000  Level Memphis Center
Sun 03:28:21 AM 33.4578 -88.5222 268° West 387 445 36,000  Level Memphis Center
Sun 03:29:21 AM 33.4536 -88.6592 268° West 387 445 36,000  Level Memphis Center
Sun 03:30:21 AM 33.4489 -88.7861 267° West 387 445 36,000  Level Memphis Center
Sun 03:31:21 AM 33.4442 -88.9083 267° West 387 445 36,000  Level Memphis Center
Sun 03:32:21 AM 33.4392 -89.0353 267° West 387 445 36,000  Level Memphis Center
Sun 03:33:21 AM 33.4364 -89.1572 268° West 381 438 36,000  Level Memphis Center
Sun 03:34:21 AM 33.4314 -89.2844 267° West 386 444 36,000  Level Memphis Center
Sun 03:35:21 AM 33.4261 -89.4064 267° West 386 444 36,000  Level Memphis Center
Sun 03:36:21 AM 33.4206 -89.5358 267° West 386 444 36,000  Level Memphis Center
Sun 03:37:21 AM 33.4153 -89.6578 267° West 386 444 36,000  Level Memphis Center
Sun 03:38:21 AM 33.4117 -89.7822 268° West 386 444 36,000  Level Memphis Center
Sun 03:39:21 AM 33.4039 -89.9069 266° West 386 444 36,000  Level Memphis Center
Sun 03:40:21 AM 33.4019 -90.0214 269° West 386 444 36,000  Level Memphis Center
Sun 03:41:21 AM 33.3939 -90.1458 266° West 386 444 36,000  Level Memphis Center
Sun 03:42:21 AM 33.3900 -90.2700 268° West 386 444 36,000  Level Memphis Center
Sun 03:43:21 AM 33.3817 -90.3969 266° West 386 444 36,000  Level Memphis Center
Sun 03:44:21 AM 33.3775 -90.5189 268° West 381 438 36,000  Level Memphis Center
Sun 03:45:21 AM 33.3708 -90.6433 266° West 381 438 36,000  Level Memphis Center
Sun 03:46:21 AM 33.3644 -90.7650 266° West 376 433 36,000  Level Memphis Center
Sun 03:47:22 AM 33.3575 -90.8919 266° West 376 433 36,000  Level Memphis Center
Sun 03:48:21 AM 33.3508 -91.0114 266° West 376 433 36,000  Level Memphis Center
Sun 03:49:21 AM 33.3458 -91.1356 267° West 376 433 36,000  Level Memphis Center
Sun 03:50:21 AM 33.3408 -91.2575 267° West 381 438 36,000  Level Memphis Center
Sun 03:51:21 AM 33.3317 -91.3842 265° West 381 438 36,000  Level Memphis Center
Sun 03:52:54 AM 33.3319 -91.5686 270° West 362 417 36,000  Level Fort Worth Center
Sun 03:53:54 AM 33.3208 -91.6911 264° West 369 425 36,000  Level Fort Worth Center
Sun 03:54:54 AM 33.3161 -91.8158 267° West 374 430 36,000  Level Fort Worth Center
Sun 03:55:54 AM 33.3089 -91.9381 266° West 374 430 36,000  Level Fort Worth Center
Sun 03:56:54 AM 33.2997 -92.0603 265° West 374 430 36,000  Level Fort Worth Center
Sun 03:57:54 AM 33.2903 -92.1853 265° West 369 425 36,000  Level Fort Worth Center
Sun 03:58:54 AM 33.2850 -92.3072 267° West 374 430 36,000  Level Fort Worth Center
Sun 04:04:26 AM 33.2341 -93.0192 267° West 382 440 36,000  Level FlightAware ADS-B
Sun 04:04:56 AM 33.2298 -93.0823 265° West 381 438 36,000  Level FlightAware ADS-B
Sun 04:05:28 AM 33.2253 -93.1488 265° West 380 437 36,000  Level FlightAware ADS-B
Sun 04:06:02 AM 33.2203 -93.2206 265° West 380 437 36,000  Level FlightAware ADS-B
Sun 04:06:45 AM 33.2141 -93.3103 265° West 379 436 36,000  Level FlightAware ADS-B
Sun 04:07:16 AM 33.2096 -93.3747 265° West 378 435 36,000  Level FlightAware ADS-B
Sun 04:07:49 AM 33.2048 -93.4421 265° West 376 433 36,000  Level FlightAware ADS-B
Sun 04:08:27 AM 33.1992 -93.5210 265° West 376 433 36,000  Level FlightAware ADS-B
Sun 04:09:12 AM 33.1926 -93.6135 265° West 376 433 36,000  Level FlightAware ADS-B
Sun 04:09:42 AM 33.1880 -93.6762 265° West 377 434 36,000  Level FlightAware ADS-B
Sun 04:10:13 AM 33.1833 -93.7399 265° West 378 435 36,000  Level FlightAware ADS-B
Sun 04:11:07 AM 33.1750 -93.8510 265° West 380 437 36,000  Level FlightAware ADS-B
Sun 04:11:47 AM 33.1690 -93.9300 265° West 382 440 36,000  Level FlightAware ADS-B
Sun 04:12:22 AM 33.1630 -93.9990 264° West 382 440 36,000  Level FlightAware ADS-B
Sun 04:13:12 AM 33.1550 -94.1120 265° West 387 445 36,000  Level FlightAware ADS-B
Sun 04:13:52 AM 33.1490 -94.1970 265° West 387 445 36,000  Level FlightAware ADS-B
Sun 04:14:37 AM 33.1410 -94.2930 264° West 388 447 36,000  Level FlightAware ADS-B
Sun 04:15:17 AM 33.1350 -94.3730 265° West 388 447 36,000  Level FlightAware ADS-B
Sun 04:16:02 AM 33.1270 -94.4720 265° West 387 445 36,000 -600 Level FlightAware ADS-B
Sun 04:16:37 AM 33.1210 -94.5500 265° West 390 449 35,200 -1,482 Descending FlightAware ADS-B
Sun 04:17:27 AM 33.1130 -94.6490 265° West 377 434 33,900 -1,260 Descending FlightAware ADS-B
Sun 04:18:17 AM 33.1040 -94.7520 264° West 378 435 33,100 -1,853 Descending FlightAware ADS-B
Sun 04:18:35 AM 33.1011 -94.7976 266° West 382 440 31,800 -2,604 Descending FlightAware ADS-B
Sun 04:19:10 AM 33.0951 -94.8711 264° West 377 434 30,800 -1,612 Descending FlightAware ADS-B
Sun 04:19:42 AM 33.0899 -94.9346 264° West 366 421 30,000 -1,548 Descending FlightAware ADS-B
Sun 04:20:12 AM 33.0848 -94.9957 264° West 363 418 29,200 -1,500 Descending FlightAware ADS-B
Sun 04:20:42 AM 33.0800 -95.0510 264° West 361 415 28,500 -1,579 Descending FlightAware ADS-B
Sun 04:20:50 AM 33.0784 -95.0704 264° West 363 418 28,200 -1,692 Descending FlightAware ADS-B
Sun 04:21:21 AM 33.0733 -95.1315 264° West 357 411 27,400 -1,448 Descending FlightAware ADS-B
Sun 04:22:17 AM 33.0640 -95.2360 264° West 348 400 26,100 -1,416 Descending FlightAware ADS-B
Sun 04:22:50 AM 33.0587 -95.3019 265° West 349 402 25,300 -1,477 Descending FlightAware ADS-B
Sun 04:23:22 AM 33.0533 -95.3636 264° West 356 410 24,500 -1,423 Descending FlightAware ADS-B
Sun 04:24:27 AM 33.0430 -95.4860 264° West 352 405 23,000 -1,429 Descending FlightAware ADS-B
Sun 04:25:07 AM 33.0360 -95.5650 264° West 356 410 22,000 -1,482 Descending FlightAware ADS-B
Sun 04:25:52 AM 33.0280 -95.6510 264° West 354 407 20,900 -1,482 Descending FlightAware ADS-B
Sun 04:26:32 AM 33.0210 -95.7290 264° West 345 397 19,900 -1,500 Descending FlightAware ADS-B
Sun 04:27:12 AM 33.0150 -95.8020 264° West 335 386 18,900 -1,482 Descending FlightAware ADS-B
Sun 04:27:57 AM 33.0070 -95.8860 264° West 337 388 17,800 -1,482 Descending FlightAware ADS-B
Sun 04:28:37 AM 33.0000 -95.9590 263° West 334 384 16,800 -1,500 Descending FlightAware ADS-B
Sun 04:29:17 AM 32.9940 -96.0330 264° West 328 377 15,800 -1,482 Descending FlightAware ADS-B
Sun 04:30:02 AM 32.9860 -96.1120 263° West 327 376 14,700 -1,624 Descending FlightAware ADS-B
Sun 04:30:42 AM 32.9860 -96.1840 270° West 323 372 13,500 -1,835 Descending FlightAware ADS-B
Sun 04:31:27 AM 32.9920 -96.2650 275° West 323 372 12,100 -1,976 Descending FlightAware ADS-B
Sun 04:32:07 AM 32.9960 -96.3360 274° West 320 368 10,700 -1,650 Descending FlightAware ADS-B
Sun 04:32:47 AM 33.0010 -96.4030 275° West 308 354 9,900 -873 Descending FlightAware ADS-B
Sun 04:33:02 AM 33.0020 -96.4290 273° West 292 336 9,900 -400 Level FlightAware ADS-B
Sun 04:33:32 AM 33.0050 -96.4750 274° West 269 310 9,600 -982 Descending FlightAware ADS-B
Sun 04:33:57 AM 33.0070 -96.5100 274° West 267 307 9,000 -1,650 Descending FlightAware ADS-B
Sun 04:34:12 AM 33.0090 -96.5330 276° West 265 305 8,500 -1,733 Descending FlightAware ADS-B
Sun 04:34:42 AM 33.0110 -96.5760 273° West 269 310 7,700 -1,418 Descending FlightAware ADS-B
Sun 04:35:07 AM 33.0140 -96.6150 275° West 266 306 7,200 -1,091 Descending FlightAware ADS-B
Sun 04:35:37 AM 33.0160 -96.6570 273° West 266 306 6,700 -1,000 Descending FlightAware ADS-B
Sun 04:36:07 AM 33.0190 -96.7010 275° West 267 307 6,200 -1,091 Descending FlightAware ADS-B
Sun 04:36:32 AM 33.0210 -96.7380 274° West 268 308 5,700 -1,091 Descending FlightAware ADS-B
Sun 04:37:02 AM 33.0240 -96.7820 275° West 269 310 5,200 -982 Descending FlightAware ADS-B
Sun 04:37:27 AM 33.0260 -96.8180 274° West 269 310 4,800 -1,067 Descending FlightAware ADS-B
Sun 04:37:47 AM 33.0280 -96.8490 274° West 266 306 4,400 -1,200 Descending FlightAware ADS-B
Sun 04:38:12 AM 33.0300 -96.8860 274° West 254 292 3,900 -960 Descending FlightAware ADS-B
Sun 04:38:37 AM 33.0320 -96.9190 274° West 237 273 3,600 -655 Descending FlightAware ADS-B
Sun 04:39:07 AM 33.0340 -96.9560 274° West 214 246 3,300 -700 Descending FlightAware ADS-B
Sun 04:39:37 AM 33.0360 -96.9900 274° West 195 224 2,900 -764 Descending FlightAware ADS-B
Sun 04:40:02 AM 33.0370 -97.0120 273° West 184 212 2,600 -646 Descending FlightAware ADS-B
Sun 04:40:42 AM 33.0240 -97.0440 244° Southwest 167 192 2,200 -171 Descending FlightAware ADS-B
Sun 04:41:12 AM 33.0010 -97.0470 186° South 165 190 2,400 -300 Climbing FlightAware ADS-B
Sun 04:41:42 AM 32.9800 -97.0500 187° South 143 165 1,900 -960 Descending FlightAware ADS-B
Sun 04:42:02 AM 32.9690 -97.0510 184° South 138 159 1,600 -400 Descending FlightAware ADS-B
Sun 04:42:27 AM 32.9530 -97.0500 177° South 138 159 1,600 -577 Level FlightAware ADS-B
Sun 04:42:54 AM 32.9372 -97.0519 177° South 139 160 1,100 -1,111 Descending Fort Worth Center
Sun 04:45:00 AM 32.8968 -97.0380 238° Southwest  Level Estimated

Login

Don't have an account? Register now (free) for customized features, flight alerts, and more!